Etusivu
METAR-TAF:

METAR-TAF

Lentoasemat :

Bowling Green, Kentucky, Yhdysvallat

Leveyspiiri: 36-57-52N, Pituuspiiri: 086-25-10W, korkeus merenpinnasta: 167 m

Tämänhetkinen sää

Tämä raportti tehtiin 10 minuuttia sitten, kello 04.53 UTC
Tuuli 3 kn eri suunnista
Lämpötila 14°C
Kosteus 72%
Ilmanpaine 1017 hPa
Näkyvyys: 16.1 km
Hajonneita pilviä 11000 ft:n korkeudessa

METAR: KBWG 050453Z AUTO VRB03KT 10SM BKN110 14/09 A3003 RMK AO2 SLP167 T01440089 $

Aika: 00:03 (05:03 UTC)

Sääennuste

Tämä raportti tehtiin 5 tuntia ja 43 minuuttia sitten, kello 23.20 UTC
Ennuste voimassa 05. päivästä klo 00 UTC - 05. päivään klo 24 UTC
Tuuli 5 kn eri suunnista
Näkyvyys: 10 km
Hajonneita pilviä 7000 ft:n korkeudessa
Ajoittain
05. päivästä klo 08 UTC - 05. päivään klo 12 UTC
Näkyvyys: 8.0 km
Hajanaisia pilviä 1500 ft:n korkeudessa
utua

TAF: KBWG 042320Z 0500/0524 VRB05KT P6SM BKN070 TEMPO 0508/0512 5SM BR SCT015

Säähavainnot ja -ennusteet yli 4000 lentoasemalta (METAR- ja TAF-raportit).

Käytössä olevat sääasemat on merkitty karttaan keltaisilla ja punaisilla pisteillä.

Aseta hiiri pisteen päälle nähdäksesi sääaseman nimen.

Klikkaa sitten nähdäksesi säähavainnot ja -ennusteet.

Kartan vaihtaminen: klikkaa mustalla rastilla varustettuja vihreitä pisteitä, niin voit zoomata sisään; viivalla varustettua vihreää pistettä, niin voit zoomata ulos tai vihreitä nuolia, niin pääset viereisille kartoille.


METAR-TAF: